Time;durP1;ratioP1;P1;durP2;ratioP2;P2;SDS_P1;SDS_P2;PMS_P1;PMS_P2;Temp;Humidity;BMP_temperature;BMP_pressure;BME280_temperature;BME280_humidity;BME280_pressure;Samples;Min_cycle;Max_cycle;Signal;HPM_P1;HPM_P2
2023/05/31 00:00:58;;;;;;;7.93;5.93;;;13.90;99.90;;;;;;5095245;28;20185;-75
2023/05/31 00:03:23;;;;;;;9.67;6.87;;;13.90;1.00;;;;;;5093973;28;20212;-76
2023/05/31 00:05:49;;;;;;;10.47;6.53;;;13.80;1.00;;;;;;5095016;28;20682;-75
2023/05/31 00:08:14;;;;;;;8.97;6.17;;;13.80;1.00;;;;;;5095047;28;20174;-75
2023/05/31 00:10:40;;;;;;;8.60;6.40;;;13.80;1.00;;;;;;5095260;28;20402;-75
2023/05/31 00:13:05;;;;;;;7.83;6.20;;;13.80;1.00;;;;;;5095569;28;20170;-78
2023/05/31 00:15:31;;;;;;;8.53;6.07;;;13.80;14.10;;;;;;5097132;28;20199;-77
2023/05/31 00:17:56;;;;;;;7.83;6.80;;;13.80;1.00;;;;;;5096819;28;20174;-77
2023/05/31 00:20:22;;;;;;;11.70;7.00;;;13.70;99.90;;;;;;5096720;28;20215;-77
2023/05/31 00:22:47;;;;;;;9.73;7.20;;;13.70;99.90;;;;;;5097844;28;20712;-78
2023/05/31 00:25:13;;;;;;;8.50;6.53;;;13.70;99.90;;;;;;5097590;28;20329;-78
2023/05/31 00:27:38;;;;;;;8.70;6.73;;;13.70;99.90;;;;;;5097404;28;20170;-77
2023/05/31 00:30:04;;;;;;;9.93;7.37;;;13.60;1.00;;;;;;5097565;28;20171;-77
2023/05/31 00:32:30;;;;;;;9.10;7.43;;;13.60;1.00;;;;;;5112320;28;20507;-78
2023/05/31 00:34:55;;;;;;;10.47;7.90;;;13.60;1.00;;;;;;5097854;28;20194;-77
2023/05/31 00:37:21;;;;;;;8.90;7.47;;;13.50;1.00;;;;;;5095618;28;20188;-78
2023/05/31 00:39:47;;;;;;;11.63;7.70;;;13.50;1.00;;;;;;5097698;28;20208;-78
2023/05/31 00:42:12;;;;;;;11.03;7.60;;;13.50;1.00;;;;;;5096425;28;20189;-78
2023/05/31 00:44:38;;;;;;;10.17;7.90;;;13.50;1.00;;;;;;5097204;28;20170;-78
2023/05/31 00:47:04;;;;;;;13.33;8.40;;;13.50;1.00;;;;;;5097421;28;20725;-77
2023/05/31 00:49:30;;;;;;;9.97;7.90;;;13.50;1.00;;;;;;5095721;28;20240;-75
2023/05/31 00:51:56;;;;;;;10.50;7.47;;;13.40;1.00;;;;;;5093379;28;20170;-76
2023/05/31 00:54:22;;;;;;;11.77;7.83;;;13.40;1.00;;;;;;5094347;28;20647;-74
2023/05/31 00:56:48;;;;;;;10.53;7.77;;;13.40;1.00;;;;;;5094923;28;20718;-78
2023/05/31 00:59:15;;;;;;;9.50;7.40;;;13.40;14.20;;;;;;5094538;28;20280;-75
2023/05/31 01:01:40;;;;;;;10.93;7.20;;;13.30;1.00;;;;;;5109737;28;20174;-74
2023/05/31 01:04:08;;;;;;;12.80;8.03;;;13.30;67.60;;;;;;5095865;28;20178;-77
2023/05/31 01:06:34;;;;;;;9.83;7.40;;;13.30;98.70;;;;;;5096420;28;20539;-78
2023/05/31 01:09:04;;;;;;;11.00;7.93;;;13.30;99.90;;;;;;5095214;28;20316;-77
2023/05/31 01:11:42;;;;;;;10.73;8.27;;;13.20;91.00;;;;;;5094097;28;20166;-75
2023/05/31 01:14:24;;;;;;;10.97;7.40;;;13.20;99.90;;;;;;5092630;28;20174;-75
2023/05/31 01:16:54;;;;;;;8.87;7.13;;;13.20;99.90;;;;;;5095556;28;20299;-78
2023/05/31 01:19:47;;;;;;;10.80;7.93;;;13.20;99.90;;;;;;5096324;28;20170;-77
2023/05/31 01:22:50;;;;;;;10.73;8.00;;;13.20;99.90;;;;;;5087661;28;20198;-78
2023/05/31 01:25:40;;;;;;;8.80;7.17;;;13.20;99.90;;;;;;5094663;28;20225;-77
2023/05/31 01:28:10;;;;;;;11.20;7.80;;;13.10;99.90;;;;;;5096896;28;20555;-77
2023/05/31 01:30:37;;;;;;;11.57;7.70;;;13.10;99.90;;;;;;5094950;28;20166;-78
2023/05/31 01:33:06;;;;;;;9.50;7.43;;;13.10;1.00;;;;;;5111640;28;20170;-77
2023/05/31 01:35:32;;;;;;;15.77;8.63;;;13.10;1.00;;;;;;5095516;28;20190;-78
2023/05/31 01:37:57;;;;;;;10.13;7.70;;;13.10;1.00;;;;;;5095671;28;20279;-76
2023/05/31 01:40:23;;;;;;;12.77;7.93;;;13.10;1.00;;;;;;5095884;28;20204;-77
2023/05/31 01:42:50;;;;;;;11.13;8.47;;;13.00;1.00;;;;;;5095742;28;20174;-78
2023/05/31 01:45:16;;;;;;;10.67;7.57;;;13.00;1.00;;;;;;5094489;28;20217;-77
2023/05/31 01:47:44;;;;;;;9.33;7.77;;;13.00;1.00;;;;;;5096113;28;20162;-78
2023/05/31 01:50:12;;;;;;;13.00;8.83;;;13.00;1.00;;;;;;5111072;28;20178;-78
2023/05/31 01:52:38;;;;;;;11.83;8.20;;;12.90;1.00;;;;;;5095676;28;20162;-78
2023/05/31 01:55:04;;;;;;;12.00;8.90;;;12.90;1.00;;;;;;5094395;28;20201;-77
2023/05/31 01:57:31;;;;;;;9.00;8.00;;;12.90;1.00;;;;;;5095964;28;20206;-78
2023/05/31 01:59:59;;;;;;;10.90;8.10;;;12.90;1.00;;;;;;5111424;28;20231;-77
2023/05/31 02:02:27;;;;;;;13.40;8.40;;;12.80;1.00;;;;;;5094324;28;20563;-77
2023/05/31 02:05:08;;;;;;;14.17;8.90;;;12.80;1.00;;;;;;5094823;28;20206;-77
2023/05/31 02:07:37;;;;;;;12.70;8.50;;;12.80;1.00;;;;;;5094914;28;20162;-75
2023/05/31 02:10:03;;;;;;;13.10;8.47;;;12.80;1.00;;;;;;5092917;28;20173;-75
2023/05/31 02:12:29;;;;;;;10.07;8.43;;;12.80;1.00;;;;;;5095809;28;20174;-75
2023/05/31 02:14:54;;;;;;;11.73;8.40;;;12.80;1.00;;;;;;5106752;28;20182;-77
2023/05/31 02:17:23;;;;;;;11.77;8.13;;;12.70;1.00;;;;;;5114935;28;20249;-77
2023/05/31 02:19:50;;;;;;;9.97;7.83;;;12.70;1.00;;;;;;5094529;28;20247;-78
2023/05/31 02:22:16;;;;;;;11.37;8.97;;;12.70;1.00;;;;;;5108230;28;20267;-78
2023/05/31 02:24:41;;;;;;;15.03;9.40;;;12.70;1.00;;;;;;5094505;28;20253;-77
2023/05/31 02:27:07;;;;;;;9.60;7.87;;;12.60;1.00;;;;;;5094264;28;20201;-77
2023/05/31 02:29:32;;;;;;;9.60;8.10;;;12.60;7.80;;;;;;5093286;28;20631;-78
2023/05/31 02:31:58;;;;;;;10.47;8.23;;;12.60;1.00;;;;;;5115284;28;20169;-77
2023/05/31 02:34:24;;;;;;;8.80;7.87;;;12.60;22.00;;;;;;5114106;28;20165;-77
2023/05/31 02:36:49;;;;;;;11.30;7.90;;;12.60;12.10;;;;;;5114712;28;20190;-78
2023/05/31 02:39:15;;;;;;;10.97;7.83;;;12.60;25.00;;;;;;5107912;28;20185;-75
2023/05/31 02:41:40;;;;;;;12.57;8.33;;;12.50;50.40;;;;;;5092595;28;20177;-75
2023/05/31 02:44:06;;;;;;;10.70;8.17;;;12.50;58.90;;;;;;5092364;28;20166;-75
2023/05/31 02:46:31;;;;;;;11.47;8.73;;;12.50;90.20;;;;;;5092598;28;20695;-78
2023/05/31 02:48:57;;;;;;;11.97;8.63;;;12.50;51.40;;;;;;5093404;28;20274;-77
2023/05/31 02:51:23;;;;;;;13.20;8.73;;;12.50;91.40;;;;;;5093178;28;20631;-78
2023/05/31 02:53:48;;;;;;;10.47;7.73;;;12.50;93.50;;;;;;5094676;28;20173;-77
2023/05/31 02:56:13;;;;;;;10.90;8.37;;;12.50;99.90;;;;;;5093097;28;20255;-78
2023/05/31 02:58:40;;;;;;;9.40;7.83;;;12.50;99.90;;;;;;5093523;28;20247;-75
2023/05/31 03:01:06;;;;;;;9.93;8.80;;;12.40;99.90;;;;;;5092048;28;20194;-75
2023/05/31 03:03:31;;;;;;;10.00;7.87;;;12.40;99.90;;;;;;5092354;28;20189;-75
2023/05/31 03:05:57;;;;;;;11.20;9.00;;;12.40;99.90;;;;;;5091990;28;20198;-74
2023/05/31 03:08:22;;;;;;;9.47;7.57;;;12.40;99.90;;;;;;5092055;28;20580;-75
2023/05/31 03:10:48;;;;;;;10.60;8.70;;;12.40;99.90;;;;;;5092133;28;20751;-75
2023/05/31 03:13:13;;;;;;;10.53;7.63;;;12.40;99.90;;;;;;5096773;28;20181;-75
2023/05/31 03:15:39;;;;;;;10.87;8.80;;;12.40;99.90;;;;;;5113879;28;20280;-75
2023/05/31 03:18:05;;;;;;;9.83;7.93;;;12.40;99.90;;;;;;5116531;28;20215;-75
2023/05/31 03:20:32;;;;;;;11.13;8.73;;;12.40;99.90;;;;;;5116439;28;20173;-78
2023/05/31 03:22:58;;;;;;;10.37;8.40;;;12.40;99.90;;;;;;5117679;28;20180;-76
2023/05/31 03:25:25;;;;;;;9.60;7.90;;;12.30;99.90;;;;;;5118124;28;20327;-77
2023/05/31 03:27:50;;;;;;;10.77;7.90;;;12.30;99.90;;;;;;5117850;28;20243;-78
2023/05/31 03:34:03;;;;;;;10.20;8.17;;;12.30;99.90;;;;;;5118486;28;20181;-77
2023/05/31 03:36:28;;;;;;;10.13;8.47;;;12.30;99.90;;;;;;5116022;28;20242;-77
2023/05/31 03:38:54;;;;;;;9.37;7.97;;;12.30;99.90;;;;;;5117362;28;20207;-77
2023/05/31 03:41:20;;;;;;;9.93;8.27;;;12.30;99.90;;;;;;5116406;28;20222;-77
2023/05/31 03:43:45;;;;;;;9.27;7.90;;;12.30;99.90;;;;;;5117651;28;20170;-77
2023/05/31 03:46:11;;;;;;;9.33;7.83;;;12.30;99.90;;;;;;5117328;28;20193;-77
2023/05/31 03:48:36;;;;;;;12.80;8.50;;;12.30;99.90;;;;;;5118118;28;20181;-77
2023/05/31 03:51:02;;;;;;;11.93;8.80;;;12.30;99.90;;;;;;5118009;28;20178;-77
2023/05/31 03:53:27;;;;;;;10.90;8.17;;;12.30;99.90;;;;;;5117926;28;20166;-78
2023/05/31 03:55:53;;;;;;;9.70;7.80;;;12.30;99.90;;;;;;5118397;28;20324;-77
2023/05/31 03:58:19;;;;;;;9.17;7.80;;;12.30;99.90;;;;;;5117533;28;20222;-77
2023/05/31 04:00:44;;;;;;;10.53;7.83;;;12.20;99.90;;;;;;5117569;28;20219;-77
2023/05/31 04:03:11;;;;;;;9.60;7.77;;;12.30;99.90;;;;;;5115986;28;20327;-77
2023/05/31 04:05:40;;;;;;;9.20;7.57;;;12.30;99.90;;;;;;5116052;28;20197;-77
2023/05/31 04:08:06;;;;;;;9.30;8.00;;;12.30;99.90;;;;;;5117379;28;20630;-77
2023/05/31 04:10:33;;;;;;;10.13;7.63;;;12.30;99.90;;;;;;5117665;28;20173;-77
2023/05/31 04:12:59;;;;;;;11.97;8.87;;;12.30;99.90;;;;;;5115687;28;20169;-76
2023/05/31 04:15:24;;;;;;;11.50;8.83;;;12.30;99.90;;;;;;5115150;28;20201;-77
2023/05/31 04:17:50;;;;;;;10.77;7.87;;;12.30;99.90;;;;;;5116527;28;20170;-77
2023/05/31 04:20:18;;;;;;;12.63;8.60;;;12.30;99.90;;;;;;5114874;28;20551;-77
2023/05/31 04:22:44;;;;;;;10.43;7.60;;;12.30;99.90;;;;;;5116429;28;20600;-77
2023/05/31 04:25:12;;;;;;;11.77;8.13;;;12.30;99.90;;;;;;5115664;27;20201;-77
2023/05/31 04:27:40;;;;;;;11.80;8.30;;;12.30;99.90;;;;;;5116271;28;20185;-77
2023/05/31 04:30:06;;;;;;;13.70;9.07;;;12.40;99.90;;;;;;5116632;28;20162;-76
2023/05/31 04:32:34;;;;;;;10.97;8.17;;;12.40;99.90;;;;;;5116524;28;20230;-77
2023/05/31 04:35:03;;;;;;;12.03;8.63;;;12.40;99.90;;;;;;5114247;28;20277;-77
2023/05/31 04:37:29;;;;;;;10.87;7.93;;;12.40;99.90;;;;;;5115585;28;20161;-77
2023/05/31 04:39:56;;;;;;;16.07;8.53;;;12.40;99.90;;;;;;5115880;28;20176;-76
2023/05/31 04:42:24;;;;;;;10.77;8.30;;;12.40;99.90;;;;;;5113943;28;20172;-77
2023/05/31 04:44:51;;;;;;;11.70;8.03;;;12.50;99.90;;;;;;5114856;28;20669;-77
2023/05/31 04:47:17;;;;;;;10.83;8.33;;;12.50;99.90;;;;;;5114982;28;20185;-77
2023/05/31 04:49:42;;;;;;;13.07;8.00;;;12.50;99.90;;;;;;5113276;28;20525;-75
2023/05/31 04:52:09;;;;;;;12.13;7.90;;;12.60;99.90;;;;;;5113963;28;20169;-75
2023/05/31 04:54:35;;;;;;;10.90;8.63;;;12.50;99.90;;;;;;5114165;27;20166;-74
2023/05/31 04:57:01;;;;;;;11.83;8.03;;;12.60;99.90;;;;;;5113901;28;20343;-74
2023/05/31 04:59:26;;;;;;;13.53;8.13;;;12.60;99.90;;;;;;5113886;28;20204;-74
2023/05/31 05:01:52;;;;;;;10.13;7.90;;;12.60;99.90;;;;;;5114422;28;20177;-74
2023/05/31 05:04:17;;;;;;;11.87;7.60;;;12.70;99.90;;;;;;5113228;28;20226;-74
2023/05/31 05:06:43;;;;;;;11.50;7.90;;;12.70;99.90;;;;;;5114487;28;20197;-74
2023/05/31 05:09:09;;;;;;;9.20;7.77;;;12.70;99.90;;;;;;5114648;28;20254;-76
2023/05/31 05:11:34;;;;;;;12.00;8.80;;;12.70;99.90;;;;;;5113142;28;20510;-77
2023/05/31 05:14:00;;;;;;;9.83;7.90;;;12.80;91.50;;;;;;5113146;28;20170;-77
2023/05/31 05:16:26;;;;;;;10.80;8.40;;;12.90;84.40;;;;;;5114042;28;20220;-77
2023/05/31 05:18:51;;;;;;;9.57;7.83;;;12.90;73.40;;;;;;5114116;28;20174;-77
2023/05/31 05:21:17;;;;;;;12.77;8.00;;;12.90;44.20;;;;;;5113114;28;20346;-76
2023/05/31 05:23:42;;;;;;;10.33;7.80;;;12.90;9.90;;;;;;5114305;28;20264;-77
2023/05/31 05:26:08;;;;;;;9.63;7.27;;;12.90;1.00;;;;;;5114114;28;20197;-76
2023/05/31 05:28:34;;;;;;;11.77;7.30;;;13.00;1.00;;;;;;5114147;28;20661;-77
2023/05/31 05:31:00;;;;;;;11.30;7.73;;;13.00;1.00;;;;;;5113246;28;20524;-77
2023/05/31 05:33:28;;;;;;;11.73;8.57;;;13.10;1.00;;;;;;5115366;28;20631;-77
2023/05/31 05:35:53;;;;;;;8.73;6.70;;;13.10;1.00;;;;;;5114651;28;20227;-77
2023/05/31 05:38:20;;;;;;;12.27;7.77;;;13.20;1.00;;;;;;5112759;28;20169;-77
2023/05/31 05:40:46;;;;;;;12.60;7.97;;;13.20;1.00;;;;;;5113476;28;20178;-77
2023/05/31 05:43:11;;;;;;;11.47;8.20;;;13.30;1.00;;;;;;5114315;28;20518;-77
2023/05/31 05:45:37;;;;;;;11.90;7.87;;;13.40;1.00;;;;;;5114637;28;20186;-77
2023/05/31 05:48:03;;;;;;;10.67;7.40;;;13.40;1.00;;;;;;5113443;28;20246;-77
2023/05/31 05:50:29;;;;;;;11.43;7.63;;;13.50;1.00;;;;;;5114130;28;20599;-77
2023/05/31 05:52:54;;;;;;;10.20;7.73;;;13.50;1.00;;;;;;5114545;28;20684;-77
2023/05/31 05:55:20;;;;;;;10.80;7.57;;;13.60;99.90;;;;;;5114372;28;20330;-77
2023/05/31 05:57:46;;;;;;;12.07;7.90;;;13.70;99.90;;;;;;5112787;28;20253;-77
2023/05/31 06:00:14;;;;;;;10.83;6.60;;;13.70;99.90;;;;;;5114385;28;20185;-77
2023/05/31 06:02:40;;;;;;;10.10;6.30;;;13.70;99.90;;;;;;5113217;28;20540;-77
2023/05/31 06:05:06;;;;;;;8.90;6.60;;;13.80;99.90;;;;;;5114636;28;20208;-77
2023/05/31 06:07:32;;;;;;;10.37;6.67;;;13.80;99.90;;;;;;5115543;28;20168;-78
2023/05/31 06:09:57;;;;;;;10.73;7.13;;;13.90;99.90;;;;;;5114587;28;20173;-78
2023/05/31 06:12:23;;;;;;;11.57;6.90;;;14.00;1.00;;;;;;5114308;28;20166;-78
2023/05/31 06:14:48;;;;;;;7.90;6.47;;;14.00;1.00;;;;;;5113371;28;20201;-78
2023/05/31 06:17:15;;;;;;;10.13;6.30;;;14.10;99.90;;;;;;5114935;28;20575;-78
2023/05/31 06:19:40;;;;;;;10.63;7.03;;;14.20;1.00;;;;;;5115176;28;20170;-78
2023/05/31 06:22:06;;;;;;;7.60;6.67;;;14.20;99.90;;;;;;5113927;28;20241;-78
2023/05/31 06:24:31;;;;;;;7.67;5.47;;;14.20;99.90;;;;;;5113450;28;20170;-75
2023/05/31 06:26:57;;;;;;;10.87;6.50;;;14.30;99.90;;;;;;5113544;28;20205;-75
2023/05/31 06:29:22;;;;;;;8.90;5.87;;;14.40;99.90;;;;;;5113569;28;20638;-76
2023/05/31 06:31:48;;;;;;;10.97;5.83;;;14.50;99.90;;;;;;5112392;28;20642;-76
2023/05/31 06:34:13;;;;;;;9.37;5.67;;;14.50;23.50;;;;;;5112135;28;20208;-76
2023/05/31 06:36:40;;;;;;;9.77;6.10;;;14.60;99.90;;;;;;5112085;28;20224;-76
2023/05/31 06:39:06;;;;;;;9.93;5.83;;;14.60;99.90;;;;;;5111990;28;20176;-75
2023/05/31 06:41:34;;;;;;;8.20;5.23;;;14.70;1.00;;;;;;5112925;28;20173;-76
2023/05/31 06:44:00;;;;;;;9.70;5.53;;;14.80;1.00;;;;;;5111959;28;20223;-76
2023/05/31 06:46:26;;;;;;;8.27;5.70;;;14.90;29.90;;;;;;5112968;28;20200;-76
2023/05/31 06:48:51;;;;;;;14.73;5.87;;;15.00;99.90;;;;;;5113317;28;20165;-76
2023/05/31 06:51:19;;;;;;;9.13;4.90;;;15.00;99.90;;;;;;5113668;28;20670;-76
2023/05/31 06:53:45;;;;;;;10.63;5.27;;;15.10;99.90;;;;;;5107958;28;20174;-76
2023/05/31 06:56:10;;;;;;;7.17;5.17;;;15.10;99.90;;;;;;5101063;28;20613;-76
2023/05/31 06:58:36;;;;;;;10.37;5.40;;;15.20;1.00;;;;;;5095865;28;20264;-76
2023/05/31 07:01:01;;;;;;;8.20;4.90;;;15.30;1.00;;;;;;5100594;28;20182;-76
2023/05/31 07:03:27;;;;;;;7.83;4.47;;;15.40;99.90;;;;;;5092640;28;20170;-76
2023/05/31 07:05:52;;;;;;;8.93;4.37;;;15.40;99.90;;;;;;5093580;28;20224;-76
2023/05/31 07:08:18;;;;;;;7.93;4.90;;;15.50;1.00;;;;;;5101518;28;20215;-76
2023/05/31 07:10:45;;;;;;;11.00;4.93;;;15.50;99.90;;;;;;5110891;28;20169;-76
2023/05/31 07:13:10;;;;;;;14.23;5.40;;;15.60;99.90;;;;;;5111263;28;20642;-76
2023/05/31 07:15:36;;;;;;;7.27;5.33;;;15.70;99.90;;;;;;5112957;28;20238;-77
2023/05/31 07:18:02;;;;;;;8.33;6.10;;;15.80;1.00;;;;;;5113360;28;20174;-76
2023/05/31 07:20:27;;;;;;;10.87;6.27;;;15.90;19.10;;;;;;5113083;28;20548;-76
2023/05/31 07:22:53;;;;;;;10.43;5.43;;;16.00;1.00;;;;;;5113388;28;20245;-77
2023/05/31 07:25:18;;;;;;;6.97;5.67;;;16.10;1.00;;;;;;5094723;28;20594;-76
2023/05/31 07:27:44;;;;;;;6.67;4.67;;;16.20;1.00;;;;;;5093282;28;20250;-76
2023/05/31 07:30:10;;;;;;;9.93;5.70;;;16.30;1.00;;;;;;5092874;28;20174;-75
2023/05/31 07:32:35;;;;;;;7.90;5.33;;;16.40;1.00;;;;;;5092700;28;20250;-76
2023/05/31 07:35:03;;;;;;;7.80;5.47;;;16.50;99.90;;;;;;5092446;28;20697;-76
2023/05/31 07:37:28;;;;;;;10.07;5.00;;;16.50;99.90;;;;;;5092837;28;20158;-77
2023/05/31 07:39:54;;;;;;;11.43;5.07;;;16.60;99.90;;;;;;5091443;28;20177;-76
2023/05/31 07:42:20;;;;;;;9.00;4.47;;;16.60;1.00;;;;;;5092970;28;20172;-76
2023/05/31 07:44:48;;;;;;;16.67;5.33;;;16.70;99.90;;;;;;5093163;28;20192;-77
2023/05/31 07:47:14;;;;;;;7.60;4.77;;;16.80;99.90;;;;;;5092680;28;20197;-76
2023/05/31 07:49:40;;;;;;;11.27;4.63;;;16.90;99.90;;;;;;5092586;28;20186;-76
2023/05/31 07:52:06;;;;;;;11.70;5.03;;;17.00;46.60;;;;;;5093166;28;20224;-76
2023/05/31 07:54:32;;;;;;;11.47;5.63;;;17.10;99.90;;;;;;5092697;28;20162;-76
2023/05/31 07:56:57;;;;;;;7.97;4.50;;;17.10;99.90;;;;;;5091419;28;20284;-77
2023/05/31 07:59:23;;;;;;;9.20;5.40;;;17.30;99.90;;;;;;5091483;28;20174;-77
2023/05/31 08:01:49;;;;;;;8.23;4.57;;;17.30;1.00;;;;;;5095424;28;20174;-76
2023/05/31 08:04:15;;;;;;;11.17;5.03;;;17.40;1.00;;;;;;5115584;28;20230;-77
2023/05/31 08:06:42;;;;;;;7.10;4.63;;;17.50;99.90;;;;;;5116628;28;20189;-77
2023/05/31 08:09:08;;;;;;;11.27;4.57;;;17.60;99.90;;;;;;5116704;28;20649;-77
2023/05/31 08:11:36;;;;;;;16.60;4.83;;;17.60;1.00;;;;;;5115320;28;20173;-77
2023/05/31 08:14:05;;;;;;;7.00;4.40;;;17.70;82.40;;;;;;5116713;28;20248;-77
2023/05/31 08:16:32;;;;;;;8.13;4.30;;;17.80;1.00;;;;;;5116381;28;20612;-77
2023/05/31 08:18:58;;;;;;;6.67;3.90;;;17.90;99.90;;;;;;5114480;28;20269;-76
2023/05/31 08:21:24;;;;;;;11.03;4.57;;;18.00;1.00;;;;;;5116768;28;20200;-76
2023/05/31 08:23:50;;;;;;;8.23;4.50;;;18.10;1.00;;;;;;5116762;28;20193;-77
2023/05/31 08:26:15;;;;;;;5.67;3.57;;;18.20;99.90;;;;;;5116047;28;20307;-76
2023/05/31 08:28:42;;;;;;;7.27;3.77;;;18.30;1.00;;;;;;5115389;28;20200;-77
2023/05/31 08:31:08;;;;;;;6.07;4.10;;;18.30;99.90;;;;;;5115296;28;20260;-77
2023/05/31 08:33:33;;;;;;;7.47;4.03;;;18.50;99.90;;;;;;5114825;28;20174;-77
2023/05/31 08:35:59;;;;;;;8.00;3.97;;;18.50;1.00;;;;;;5113902;28;20211;-77
2023/05/31 08:38:28;;;;;;;4.87;3.33;;;18.70;1.00;;;;;;5115003;28;20191;-77
2023/05/31 08:41:00;;;;;;;6.70;3.63;;;18.70;1.00;;;;;;5116118;28;20177;-77
2023/05/31 08:43:27;;;;;;;8.33;3.10;;;18.80;99.90;;;;;;5114581;28;20177;-77
2023/05/31 08:45:54;;;;;;;7.10;3.20;;;18.80;99.90;;;;;;5114746;28;20217;-77
2023/05/31 08:48:42;;;;;;;6.03;3.50;;;18.90;1.00;;;;;;5107703;28;20205;-77
2023/05/31 08:51:08;;;;;;;11.83;4.00;;;19.00;1.00;;;;;;5095691;28;20162;-77
2023/05/31 08:53:34;;;;;;;7.63;3.00;;;19.10;99.90;;;;;;5096527;28;20182;-77
2023/05/31 08:56:03;;;;;;;8.63;4.00;;;19.30;1.00;;;;;;5096028;28;20285;-77
2023/05/31 08:58:29;;;;;;;5.80;3.03;;;19.30;1.00;;;;;;5096266;28;20174;-77
2023/05/31 09:00:55;;;;;;;10.03;3.10;;;19.40;1.00;;;;;;5098439;28;20192;-77
2023/05/31 09:03:22;;;;;;;6.53;2.67;;;19.50;1.00;;;;;;5104054;28;20181;-78
2023/05/31 09:05:48;;;;;;;5.87;3.13;;;19.60;1.00;;;;;;5101380;28;20252;-77
2023/05/31 09:08:14;;;;;;;9.77;3.10;;;19.70;1.00;;;;;;5107081;28;20255;-77
2023/05/31 09:10:41;;;;;;;11.37;3.23;;;19.80;1.00;;;;;;5098219;28;20209;-77
2023/05/31 09:13:07;;;;;;;5.93;3.00;;;19.80;1.00;;;;;;5094756;28;20294;-77
2023/05/31 09:15:35;;;;;;;6.57;3.07;;;20.00;1.00;;;;;;5108030;28;20197;-78
2023/05/31 09:18:20;;;;;;;5.10;2.70;;;20.10;1.00;;;;;;5117234;28;20185;-78
2023/05/31 09:20:50;;;;;;;5.63;3.23;;;20.20;99.90;;;;;;5115845;28;20180;-78
2023/05/31 09:23:17;;;;;;;8.80;3.30;;;20.20;99.90;;;;;;5121655;28;20201;-77
2023/05/31 09:25:44;;;;;;;6.67;3.03;;;20.30;99.90;;;;;;5120585;28;20274;-77
2023/05/31 09:28:10;;;;;;;7.67;3.07;;;20.40;99.90;;;;;;5110362;28;20177;-77
2023/05/31 09:30:36;;;;;;;6.50;2.50;;;20.50;99.90;;;;;;5114772;28;20173;-77
2023/05/31 09:33:02;;;;;;;8.10;3.30;;;20.60;99.90;;;;;;5102420;28;20261;-78
2023/05/31 09:35:27;;;;;;;7.87;3.20;;;20.70;45.70;;;;;;5113613;28;20228;-78
2023/05/31 09:37:53;;;;;;;6.87;2.43;;;20.60;99.90;;;;;;5103252;28;20227;-77
2023/05/31 09:40:27;;;;;;;3.77;2.40;;;20.80;99.90;;;;;;5106497;28;20170;-77
2023/05/31 09:42:53;;;;;;;8.27;2.13;;;20.80;99.90;;;;;;5108078;28;20189;-77
2023/05/31 09:45:20;;;;;;;7.60;2.57;;;20.90;1.00;;;;;;5113808;28;20342;-77
2023/05/31 09:47:46;;;;;;;4.90;2.20;;;21.00;1.00;;;;;;5113813;28;20276;-78
2023/05/31 09:50:15;;;;;;;5.20;1.90;;;21.00;1.00;;;;;;5115301;28;20185;-76
2023/05/31 09:52:43;;;;;;;3.70;2.20;;;21.10;1.00;;;;;;5114905;28;20178;-76
2023/05/31 09:55:11;;;;;;;5.43;2.73;;;21.20;1.00;;;;;;5114673;27;20185;-76
2023/05/31 09:57:40;;;;;;;4.03;2.30;;;21.20;1.00;;;;;;5112769;28;20170;-75
2023/05/31 10:00:14;;;;;;;4.67;1.90;;;21.30;1.00;;;;;;5114041;28;20161;-76
2023/05/31 10:02:44;;;;;;;5.07;2.50;;;21.30;1.00;;;;;;5112942;28;20207;-77
2023/05/31 10:05:13;;;;;;;6.10;2.00;;;21.30;1.00;;;;;;5113852;28;20193;-76
2023/05/31 10:07:41;;;;;;;9.17;2.57;;;21.30;1.00;;;;;;5112629;28;20170;-77
2023/05/31 10:10:08;;;;;;;7.87;2.40;;;21.40;1.00;;;;;;5112877;28;20193;-76
2023/05/31 10:12:50;;;;;;;5.60;2.30;;;21.40;1.00;;;;;;5114181;28;20609;-77
2023/05/31 10:15:23;;;;;;;5.97;2.13;;;21.50;1.00;;;;;;5113050;28;20194;-76
2023/05/31 10:18:16;;;;;;;4.27;2.07;;;21.50;1.00;;;;;;5114287;28;20642;-76
2023/05/31 10:20:49;;;;;;;4.63;1.70;;;21.50;1.00;;;;;;5112656;28;20172;-77
2023/05/31 10:23:20;;;;;;;6.37;2.30;;;21.60;1.00;;;;;;5112500;28;20196;-75
2023/05/31 10:26:13;;;;;;;4.73;2.07;;;21.80;1.00;;;;;;5112533;28;20724;-77
2023/05/31 10:28:54;;;;;;;5.70;2.10;;;21.70;1.00;;;;;;5114267;28;20154;-77
2023/05/31 10:31:23;;;;;;;6.07;2.10;;;21.80;1.00;;;;;;5114014;28;20236;-76
2023/05/31 10:33:53;;;;;;;3.77;2.00;;;21.90;1.00;;;;;;5113911;28;20176;-77
2023/05/31 10:36:19;;;;;;;8.43;2.70;;;22.00;1.00;;;;;;5113336;28;20215;-77
2023/05/31 10:38:55;;;;;;;5.43;2.40;;;22.10;1.00;;;;;;5114211;28;20248;-77
2023/05/31 10:41:23;;;;;;;4.00;1.70;;;22.20;1.00;;;;;;5115282;28;20161;-77
2023/05/31 10:44:00;;;;;;;3.40;1.83;;;22.20;1.00;;;;;;5114860;27;20614;-77
2023/05/31 10:46:29;;;;;;;7.40;2.10;;;22.30;1.00;;;;;;5114789;28;20201;-77
2023/05/31 10:48:57;;;;;;;10.13;2.00;;;22.40;1.00;;;;;;5113765;28;20523;-77
2023/05/31 10:52:04;;;;;;;6.13;2.07;;;22.40;1.00;;;;;;5113977;28;20173;-77
2023/05/31 10:54:32;;;;;;;11.73;3.10;;;22.50;1.00;;;;;;5031449;28;20221;-77
2023/05/31 10:56:59;;;;;;;6.03;1.90;;;22.50;1.00;;;;;;5031392;28;20196;-77
2023/05/31 10:59:27;;;;;;;5.43;1.80;;;22.50;1.00;;;;;;5063124;28;20615;-77
2023/05/31 11:01:54;;;;;;;4.17;2.17;;;22.50;1.00;;;;;;5112072;28;20200;-77
2023/05/31 11:04:27;;;;;;;5.00;1.77;;;22.60;1.00;;;;;;5113763;28;20174;-77
2023/05/31 11:06:55;;;;;;;8.00;2.10;;;22.70;1.00;;;;;;5112266;28;20230;-77
2023/05/31 11:09:21;;;;;;;6.40;1.70;;;22.70;1.00;;;;;;5113786;28;20172;-77
2023/05/31 11:11:48;;;;;;;5.13;2.10;;;22.60;1.00;;;;;;5114352;28;20166;-77
2023/05/31 11:14:26;;;;;;;4.13;2.03;;;22.80;1.00;;;;;;5113726;28;20161;-78
2023/05/31 11:16:56;;;;;;;3.57;1.87;;;22.80;1.00;;;;;;5112684;28;20201;-78
2023/05/31 11:19:30;;;;;;;8.73;2.40;;;22.90;1.00;;;;;;5114510;28;20157;-78
2023/05/31 11:21:59;;;;;;;2.63;1.70;;;22.90;1.00;;;;;;5112229;28;20642;-77
2023/05/31 11:24:35;;;;;;;2.97;1.73;;;23.00;1.00;;;;;;5114083;28;20525;-78
2023/05/31 11:27:02;;;;;;;5.63;2.07;;;23.00;1.00;;;;;;5113100;28;20766;-78
2023/05/31 11:29:47;;;;;;;6.33;2.40;;;23.00;1.00;;;;;;5113772;28;20169;-77
2023/05/31 11:32:19;;;;;;;8.10;2.57;;;23.00;1.00;;;;;;5113157;28;20595;-78
2023/05/31 11:34:57;;;;;;;3.70;2.00;;;23.00;1.00;;;;;;5114453;28;20180;-77
2023/05/31 11:37:27;;;;;;;3.17;1.70;;;23.10;1.00;;;;;;5119010;28;20166;-78
2023/05/31 11:39:54;;;;;;;2.70;1.77;;;23.20;1.00;;;;;;5118670;28;20240;-78
2023/05/31 11:42:20;;;;;;;4.87;1.87;;;23.20;1.00;;;;;;5118656;28;20223;-77
2023/05/31 11:44:49;;;;;;;4.23;1.60;;;23.20;1.00;;;;;;5116714;28;20197;-77
2023/05/31 11:47:19;;;;;;;15.23;2.70;;;23.50;1.00;;;;;;5118343;28;20272;-77
2023/05/31 11:49:45;;;;;;;3.00;1.70;;;23.30;1.00;;;;;;5118638;28;20170;-78
2023/05/31 11:52:15;;;;;;;5.13;2.20;;;23.30;1.00;;;;;;5117016;28;20174;-77
2023/05/31 11:54:45;;;;;;;5.97;1.93;;;23.50;1.00;;;;;;5118161;28;20157;-78
2023/05/31 11:57:11;;;;;;;6.63;1.97;;;23.60;1.00;;;;;;5116458;28;20170;-77
2023/05/31 11:59:39;;;;;;;5.27;1.87;;;23.70;1.00;;;;;;5117538;28;20174;-78
2023/05/31 12:02:06;;;;;;;4.50;1.97;;;23.50;1.00;;;;;;5118250;28;20242;-77
2023/05/31 12:04:40;;;;;;;4.80;2.20;;;23.70;1.00;;;;;;5117033;28;20558;-77
2023/05/31 12:07:19;;;;;;;4.10;1.87;;;23.70;1.00;;;;;;5117530;28;20192;-77
2023/05/31 12:09:46;;;;;;;5.23;2.03;;;23.70;1.00;;;;;;5118563;28;20146;-78
2023/05/31 12:12:12;;;;;;;6.47;2.07;;;23.80;1.00;;;;;;5118268;28;20170;-79
2023/05/31 12:14:37;;;;;;;4.93;1.93;;;24.00;1.00;;;;;;5117858;28;20165;-77
2023/05/31 12:17:04;;;;;;;5.73;2.17;;;23.90;1.00;;;;;;5117288;28;20201;-79
2023/05/31 12:19:30;;;;;;;5.47;2.10;;;23.90;1.00;;;;;;5116472;28;20296;-78
2023/05/31 12:21:56;;;;;;;5.47;2.00;;;23.90;1.00;;;;;;5117332;28;20722;-78
2023/05/31 12:24:21;;;;;;;4.40;2.10;;;24.00;1.00;;;;;;5115683;28;20166;-78
2023/05/31 12:26:51;;;;;;;6.70;2.10;;;23.90;1.00;;;;;;5117098;28;20319;-77
2023/05/31 12:29:17;;;;;;;7.60;2.27;;;24.00;1.00;;;;;;5116787;28;20174;-77
2023/05/31 12:31:43;;;;;;;3.77;2.00;;;24.00;1.00;;;;;;5116321;28;20169;-77
2023/05/31 12:34:10;;;;;;;6.40;2.27;;;24.00;1.00;;;;;;5117910;28;20239;-78
2023/05/31 12:36:42;;;;;;;5.53;2.07;;;24.00;1.00;;;;;;5117478;28;20188;-77
2023/05/31 12:39:11;;;;;;;5.47;2.30;;;24.10;1.00;;;;;;5115715;28;20170;-78
2023/05/31 12:41:37;;;;;;;2.85;1.80;;;24.20;1.00;;;;;;5117608;28;20169;-78
2023/05/31 12:44:03;;;;;;;14.30;2.35;;;24.20;1.00;;;;;;5117057;28;20204;-78
2023/05/31 12:46:36;;;;;;;4.47;1.93;;;24.40;1.00;;;;;;5115688;28;20630;-77
2023/05/31 12:49:10;;;;;;;4.27;1.50;;;24.30;99.90;;;;;;5116970;28;20697;-78
2023/05/31 12:51:36;;;;;;;7.50;2.00;;;24.30;1.00;;;;;;5115239;28;20221;-78
2023/05/31 12:54:02;;;;;;;5.90;1.80;;;24.30;99.90;;;;;;5116418;28;20166;-78